This is the latest recevied weather packets stored in our database for station/object IW1AXR-3. If no packets are shown the sender has not sent any weather packets the latest 10 day(s).
| Time | Temp. | Humidity | Pressure | Rain* | Wind** | Luminosity | Snow |
|---|---|---|---|---|---|---|---|
| 1777878527 | 13.33° C | 83% | 1015.9 hPa | - | - | - | - |
| 1777876715 | 13.33° C | 82% | 1015.6 hPa | - | - | - | - |
| 1777876112 | 12.22° C | 86% | 1015.5 hPa | - | - | - | - |
| 1777875508 | 12.22° C | 86% | 1015.5 hPa | - | - | - | - |
| 1777873694 | 11.11° C | 86% | 1015.2 hPa | - | - | - | - |
| 1777872488 | 10.56° C | 87% | 1015 hPa | - | - | - | - |
| 1777871884 | 10.56° C | 87% | 1015 hPa | - | - | - | - |
| 1777871278 | 10.56° C | 88% | 1015.1 hPa | - | - | - | - |
| 1777870071 | 10° C | 87% | 1015.1 hPa | - | - | - | - |
| 1777869635 | 10° C | 87% | 1015.1 hPa | - | - | - | - |
| 1777869468 | 10° C | 87% | 1015.1 hPa | - | - | - | - |
| 1777868864 | 10.56° C | 86% | 1015 hPa | - | - | - | - |
| 1777868260 | 10.56° C | 85% | 1015 hPa | - | - | - | - |
| 1777867656 | 10° C | 87% | 1015.1 hPa | - | - | - | - |
| 1777867052 | 10° C | 86% | 1015 hPa | - | - | - | - |
| 1777864640 | 10° C | 86% | 1015.2 hPa | - | - | - | - |
| 1777864067 | 10.56° C | 85% | 1015 hPa | - | - | - | - |
| 1777864036 | 10.56° C | 85% | 1015 hPa | - | - | - | - |
| 1777863434 | 10° C | 86% | 1015.2 hPa | - | - | - | - |
| 1777862829 | 10.56° C | 85% | 1015.2 hPa | - | - | - | - |
| 1777862226 | 10.56° C | 85% | 1015.3 hPa | - | - | - | - |
| 1777859807 | 11.11° C | 81% | 1015.3 hPa | - | - | - | - |
| 1777859206 | 10.56° C | 83% | 1015.3 hPa | - | - | - | - |
| 1777858601 | 10.56° C | 81% | 1015.2 hPa | - | - | - | - |
| 1777857997 | 11.11° C | 80% | 1015.3 hPa | - | - | - | - |
* Rain since midnight (hover to see other rain measurements)
** Current wind speed in m/s (hover to see current wind gust speed)